Terminal Aerodrome Forecast
Issued by NWS Sterling, VA

Current Version | Previous Version | Text Only | Print | Product List | Glossary Off
Versions: 1 2 3 4 5 6 7 8 9 10 11 12 13 14 15 16 17 18 19 20 21 22 23 24 25 26 27 28 29

863
FTUS41 KLWX 300347 AAA
TAFDCA
TAF AMD
KDCA 300347Z 3004/3024 21005KT 3SM BR OVC008
     FM300500 21004KT 3/4SM BR OVC008
     FM300900 17007KT 3SM -SHRA BR OVC003
     FM301600 18011G18KT P6SM -SHRA OVC008
     FM301800 19012G20KT P6SM -SHRA SCT008 OVC015
     FM302100 19011KT 6SM SHRA OVC020=

USA.gov is the U.S. government's official web portal to all federal, state and local government web resources and services.